createdAt,value
2022-12-29T00:00:01.386Z,8.85
2022-12-29T00:02:28.021Z,8.87
2022-12-29T00:04:54.727Z,8.90
2022-12-29T00:07:21.247Z,8.91
2022-12-29T00:09:47.819Z,8.84
2022-12-29T00:12:14.334Z,8.75
2022-12-29T00:14:59.534Z,8.74
2022-12-29T00:17:26.047Z,8.73
2022-12-29T00:20:11.319Z,8.81
2022-12-29T00:22:56.527Z,9.01
2022-12-29T00:25:41.662Z,8.92
2022-12-29T00:28:28.290Z,8.92
2022-12-29T00:31:17.392Z,8.80
2022-12-29T00:34:03.472Z,8.78
2022-12-29T00:36:35.483Z,8.71
2022-12-29T00:39:27.232Z,8.74
2022-12-29T00:42:12.209Z,8.87
2022-12-29T00:44:38.765Z,8.83
2022-12-29T00:47:05.480Z,8.85
2022-12-29T00:49:33.334Z,8.80
2022-12-29T00:52:06.997Z,8.87
2022-12-29T00:54:35.764Z,8.95
2022-12-29T00:57:03.128Z,8.92
2022-12-29T00:59:30.907Z,8.88
2022-12-29T01:01:58.227Z,8.80
2022-12-29T01:04:27.154Z,8.86
2022-12-29T01:06:54.175Z,8.81
2022-12-29T01:09:40.019Z,8.89
2022-12-29T01:12:09.280Z,8.87
2022-12-29T01:14:36.983Z,8.87
2022-12-29T01:17:04.494Z,8.87
2022-12-29T01:19:31.503Z,8.76
2022-12-29T01:21:58.536Z,8.79
2022-12-29T01:24:27.020Z,8.73
2022-12-29T01:26:55.346Z,8.73
2022-12-29T01:29:22.341Z,8.71
2022-12-29T01:31:50.637Z,8.71
2022-12-29T01:34:18.255Z,8.73
2022-12-29T01:36:44.851Z,8.71
2022-12-29T01:39:12.706Z,8.68
2022-12-29T01:41:39.380Z,8.59
2022-12-29T01:44:43.336Z,8.56
2022-12-29T01:47:09.956Z,8.52
2022-12-29T01:49:36.675Z,8.54
2022-12-29T01:52:08.996Z,8.49
2022-12-29T01:54:44.637Z,8.42
2022-12-29T01:57:26.116Z,8.32
2022-12-29T02:00:11.761Z,8.35
2022-12-29T02:02:47.578Z,8.42
2022-12-29T02:05:21.047Z,8.25
2022-12-29T02:07:51.415Z,8.39
2022-12-29T02:10:20.746Z,8.31
2022-12-29T02:12:48.105Z,8.24
2022-12-29T02:15:15.919Z,8.29
2022-12-29T02:17:48.835Z,8.27
2022-12-29T02:20:42.963Z,8.27
2022-12-29T02:23:19.620Z,8.43
2022-12-29T02:26:31.106Z,8.47
2022-12-29T02:29:05.532Z,8.43
2022-12-29T02:31:44.472Z,8.47
2022-12-29T02:34:38.350Z,8.33
2022-12-29T02:37:12.584Z,8.36
2022-12-29T02:39:52.213Z,8.40
2022-12-29T02:42:31.760Z,8.38
2022-12-29T02:45:25.203Z,8.42
2022-12-29T02:48:22.324Z,8.42
2022-12-29T02:50:58.745Z,8.39
2022-12-29T02:53:46.959Z,8.44
2022-12-29T02:56:13.701Z,8.40
2022-12-29T02:58:41.164Z,8.45
2022-12-29T03:01:13.807Z,8.40
2022-12-29T03:03:47.098Z,8.39
2022-12-29T03:06:23.344Z,8.37
2022-12-29T03:09:28.407Z,8.31
2022-12-29T03:12:24.577Z,8.38
2022-12-29T03:15:21.330Z,8.37
2022-12-29T03:18:07.060Z,8.31
2022-12-29T03:20:50.224Z,8.39
2022-12-29T03:23:18.554Z,8.29
2022-12-29T03:25:50.563Z,8.30
2022-12-29T03:28:33.049Z,8.22
2022-12-29T03:31:01.369Z,8.25
2022-12-29T03:33:30.988Z,8.24
2022-12-29T03:36:03.229Z,8.31
2022-12-29T03:38:44.633Z,8.34
2022-12-29T03:41:16.812Z,8.30
2022-12-29T03:43:43.931Z,8.38
2022-12-29T03:46:10.664Z,8.45
2022-12-29T03:48:40.434Z,8.42
2022-12-29T03:51:07.062Z,8.48
2022-12-29T03:53:34.174Z,8.50
2022-12-29T03:56:00.938Z,8.47
2022-12-29T03:58:27.508Z,8.45
2022-12-29T04:01:16.723Z,8.43
2022-12-29T04:03:45.490Z,8.46
2022-12-29T04:06:12.433Z,8.52
2022-12-29T04:08:45.814Z,8.44
2022-12-29T04:11:12.867Z,8.47
2022-12-29T04:13:41.834Z,8.49
2022-12-29T04:16:10.505Z,8.43
2022-12-29T04:18:37.108Z,8.45
2022-12-29T04:21:04.527Z,8.41
2022-12-29T04:23:36.100Z,8.47
2022-12-29T04:26:05.008Z,8.50
2022-12-29T04:28:32.351Z,8.52
2022-12-29T04:31:18.788Z,8.55
2022-12-29T04:33:46.642Z,8.58
2022-12-29T04:36:13.282Z,8.49
2022-12-29T04:38:39.855Z,8.52
2022-12-29T04:41:06.659Z,8.56
2022-12-29T04:43:35.660Z,8.62
2022-12-29T04:46:20.942Z,8.67
2022-12-29T04:48:52.486Z,8.61
2022-12-29T04:51:28.345Z,8.59
2022-12-29T04:53:54.935Z,8.43
2022-12-29T04:56:23.294Z,8.34
2022-12-29T04:58:49.851Z,8.29
2022-12-29T05:01:16.528Z,8.31
2022-12-29T05:03:44.019Z,8.37
2022-12-29T05:06:10.886Z,8.41
2022-12-29T05:08:39.117Z,8.43
2022-12-29T05:11:06.261Z,8.46
2022-12-29T05:13:32.815Z,8.44
2022-12-29T05:16:00.329Z,8.54
2022-12-29T05:18:28.074Z,8.58
2022-12-29T05:20:54.621Z,8.61
2022-12-29T05:23:23.187Z,8.68
2022-12-29T05:25:55.934Z,8.66
2022-12-29T05:28:42.793Z,8.70
2022-12-29T05:31:13.458Z,8.70
2022-12-29T05:33:40.106Z,8.77
2022-12-29T05:36:08.868Z,8.80
2022-12-29T05:38:37.790Z,8.76
2022-12-29T05:41:15.166Z,8.75
2022-12-29T05:43:42.097Z,8.76
2022-12-29T05:46:37.708Z,8.81
2022-12-29T05:49:07.587Z,8.79
2022-12-29T05:51:52.672Z,8.74
2022-12-29T05:54:19.280Z,8.72
2022-12-29T05:56:46.429Z,8.70
2022-12-29T05:59:13.441Z,8.76
2022-12-29T06:01:40.564Z,8.80
2022-12-29T06:04:07.784Z,8.78
2022-12-29T06:06:34.483Z,8.80
2022-12-29T06:09:01.107Z,8.88
2022-12-29T06:11:28.895Z,8.90
2022-12-29T06:13:58.770Z,8.92
2022-12-29T06:16:25.404Z,8.92
2022-12-29T06:18:55.394Z,8.95
2022-12-29T06:21:22.661Z,8.93
2022-12-29T06:23:49.232Z,8.89
2022-12-29T06:26:15.777Z,8.86
2022-12-29T06:28:43.152Z,8.90
2022-12-29T06:31:11.447Z,8.99
2022-12-29T06:33:38.987Z,8.94
2022-12-29T06:36:05.777Z,8.94
2022-12-29T06:38:32.410Z,8.85
2022-12-29T06:40:59.651Z,8.78
2022-12-29T06:43:36.866Z,8.77
2022-12-29T06:46:13.370Z,8.72
2022-12-29T06:48:40.046Z,8.80
2022-12-29T06:51:06.538Z,8.75
2022-12-29T06:53:33.032Z,8.67
2022-12-29T06:55:59.547Z,8.67
2022-12-29T06:58:26.052Z,8.54
2022-12-29T07:00:52.770Z,8.61
2022-12-29T07:03:19.396Z,8.68
2022-12-29T07:05:45.960Z,8.60
2022-12-29T07:08:12.487Z,8.50
2022-12-29T07:10:39.055Z,8.61
2022-12-29T07:13:05.567Z,8.58
2022-12-29T07:15:32.072Z,8.58
2022-12-29T07:17:58.569Z,8.58
2022-12-29T07:20:27.577Z,8.61
2022-12-29T07:22:54.364Z,8.72
2022-12-29T07:25:20.891Z,8.68
2022-12-29T07:27:47.499Z,8.81
2022-12-29T07:30:14.097Z,8.83
2022-12-29T07:32:40.662Z,8.91
2022-12-29T07:35:07.763Z,9.08
2022-12-29T07:37:35.558Z,9.06
2022-12-29T07:40:04.286Z,9.12
2022-12-29T07:42:32.052Z,9.17
2022-12-29T07:44:59.859Z,9.25
2022-12-29T07:47:31.074Z,9.37
2022-12-29T07:49:57.575Z,9.43
2022-12-29T07:52:24.147Z,9.46
2022-12-29T07:54:53.503Z,9.51
2022-12-29T07:57:20.077Z,9.69
2022-12-29T07:59:46.899Z,9.67
2022-12-29T08:02:13.650Z,9.68
2022-12-29T08:04:40.310Z,9.69
2022-12-29T08:07:06.833Z,9.65
2022-12-29T08:09:33.349Z,9.71
2022-12-29T08:12:07.254Z,9.65
2022-12-29T08:14:59.075Z,9.67
2022-12-29T08:17:25.643Z,9.60
2022-12-29T08:19:52.217Z,9.58
2022-12-29T08:22:18.741Z,9.48
2022-12-29T08:24:52.365Z,9.44
2022-12-29T08:28:14.631Z,9.36
2022-12-29T08:30:41.245Z,9.26
2022-12-29T08:33:07.855Z,9.17
2022-12-29T08:35:34.678Z,9.02
2022-12-29T08:38:01.174Z,8.98
2022-12-29T08:40:27.855Z,8.88
2022-12-29T08:42:54.467Z,8.83
2022-12-29T08:45:21.298Z,8.92
2022-12-29T08:47:47.845Z,8.90
2022-12-29T08:50:14.500Z,8.87
2022-12-29T08:52:44.977Z,8.92
2022-12-29T08:55:22.956Z,8.92
2022-12-29T08:57:54.926Z,9.06
2022-12-29T09:00:21.752Z,9.20
2022-12-29T09:02:48.532Z,9.13
2022-12-29T09:05:15.330Z,9.16
2022-12-29T09:07:42.251Z,9.22
2022-12-29T09:10:09.143Z,9.14
2022-12-29T09:12:36.733Z,9.17
2022-12-29T09:15:04.605Z,9.25
2022-12-29T09:17:44.407Z,9.33
2022-12-29T09:20:16.468Z,9.29
2022-12-29T09:22:43.731Z,9.34
2022-12-29T09:25:11.455Z,9.30
2022-12-29T09:27:38.196Z,9.34
2022-12-29T09:30:07.391Z,9.29
2022-12-29T09:32:36.068Z,9.23
2022-12-29T09:35:05.936Z,9.24
2022-12-29T09:37:32.426Z,9.34
2022-12-29T09:39:59.194Z,9.33
2022-12-29T09:42:49.515Z,9.40
2022-12-29T09:45:33.539Z,9.37
2022-12-29T09:48:03.033Z,9.34
2022-12-29T09:50:36.306Z,9.30
2022-12-29T09:53:16.434Z,9.24
2022-12-29T09:55:50.613Z,9.24
2022-12-29T09:58:37.295Z,9.23
2022-12-29T10:01:48.640Z,9.23
2022-12-29T10:04:19.528Z,9.33
2022-12-29T10:07:29.300Z,9.36
2022-12-29T10:10:08.485Z,9.38
2022-12-29T10:12:55.128Z,9.37
2022-12-29T10:15:46.456Z,9.34
2022-12-29T10:18:25.123Z,9.32
2022-12-29T10:20:51.612Z,9.40
2022-12-29T10:23:27.608Z,9.36
2022-12-29T10:25:58.841Z,9.29
2022-12-29T10:28:32.719Z,9.27
2022-12-29T10:31:08.354Z,9.24
2022-12-29T10:33:40.234Z,9.22
2022-12-29T10:36:14.357Z,9.03
2022-12-29T10:38:59.741Z,8.98
2022-12-29T10:41:47.410Z,9.00
2022-12-29T10:44:19.203Z,8.93
2022-12-29T10:47:49.786Z,8.88
2022-12-29T10:50:18.631Z,8.93
2022-12-29T10:52:45.201Z,8.96
2022-12-29T10:55:23.141Z,9.04
2022-12-29T10:57:50.638Z,9.10
2022-12-29T11:00:23.479Z,9.20
2022-12-29T11:03:21.918Z,9.19
2022-12-29T11:05:57.746Z,9.22
2022-12-29T11:08:34.329Z,9.13
2022-12-29T11:11:09.619Z,9.09
2022-12-29T11:13:48.224Z,9.03
2022-12-29T11:16:15.442Z,8.95
2022-12-29T11:18:47.820Z,8.91
2022-12-29T11:21:33.644Z,8.61
2022-12-29T11:24:20.653Z,8.55
2022-12-29T11:26:47.591Z,8.52
2022-12-29T11:29:17.091Z,8.38
2022-12-29T11:31:55.199Z,8.33
2022-12-29T11:34:26.044Z,8.42
2022-12-29T11:37:04.553Z,8.38
2022-12-29T11:39:52.995Z,8.35
2022-12-29T11:42:24.683Z,8.51
2022-12-29T11:44:52.372Z,8.80
2022-12-29T11:47:31.715Z,8.98
2022-12-29T11:50:01.590Z,9.00
2022-12-29T11:52:33.990Z,8.97
2022-12-29T11:55:02.681Z,8.93
2022-12-29T11:57:31.707Z,8.85
2022-12-29T12:00:02.216Z,8.78
2022-12-29T12:02:45.435Z,8.68
2022-12-29T12:05:39.003Z,8.67
2022-12-29T12:08:20.733Z,8.58
2022-12-29T12:10:57.525Z,8.42
2022-12-29T12:13:27.243Z,8.33
2022-12-29T12:16:10.493Z,8.30
2022-12-29T12:18:48.879Z,8.23
2022-12-29T12:21:21.243Z,8.08
2022-12-29T12:24:08.541Z,8.17
2022-12-29T12:26:50.209Z,8.22
2022-12-29T12:29:26.361Z,8.20
2022-12-29T12:32:24.860Z,8.22
2022-12-29T12:34:51.780Z,8.16
2022-12-29T12:37:30.652Z,8.32
2022-12-29T12:40:35.787Z,8.42
2022-12-29T12:43:45.182Z,8.51
2022-12-29T12:46:47.888Z,8.51
2022-12-29T12:49:27.272Z,8.57
2022-12-29T12:52:09.822Z,8.54
2022-12-29T12:55:15.227Z,8.45
2022-12-29T12:58:04.736Z,8.28
2022-12-29T13:00:41.214Z,8.36
2022-12-29T13:03:23.711Z,8.34
2022-12-29T13:06:23.946Z,8.37
2022-12-29T13:09:00.256Z,8.30
2022-12-29T13:11:35.468Z,8.36
2022-12-29T13:14:35.949Z,8.31
2022-12-29T13:17:25.611Z,8.45
2022-12-29T13:20:01.192Z,8.48
2022-12-29T13:23:01.003Z,8.48
2022-12-29T13:25:52.379Z,8.49
2022-12-29T13:28:31.746Z,8.47
2022-12-29T13:31:16.938Z,8.35
2022-12-29T13:34:13.095Z,8.46
2022-12-29T13:36:47.160Z,8.56
2022-12-29T13:39:21.375Z,8.62
2022-12-29T13:41:56.044Z,8.68
2022-12-29T13:44:49.254Z,8.63
2022-12-29T13:47:29.532Z,8.61
2022-12-29T13:49:59.000Z,8.65
2022-12-29T13:52:37.498Z,8.74
2022-12-29T13:55:29.057Z,8.67
2022-12-29T13:58:09.892Z,8.63
2022-12-29T14:00:59.186Z,8.70
2022-12-29T14:03:31.665Z,8.72
2022-12-29T14:06:17.215Z,8.79
2022-12-29T14:08:44.580Z,8.85
2022-12-29T14:11:12.703Z,8.83
2022-12-29T14:13:42.116Z,8.82
2022-12-29T14:16:22.889Z,8.87
2022-12-29T14:18:49.493Z,8.84
2022-12-29T14:21:29.478Z,8.80
2022-12-29T14:24:36.847Z,8.79
2022-12-29T14:27:13.027Z,8.84
2022-12-29T14:29:39.486Z,8.74
2022-12-29T14:32:27.754Z,8.68
2022-12-29T14:34:58.780Z,8.70
2022-12-29T14:37:28.109Z,8.69
2022-12-29T14:40:19.028Z,8.66
2022-12-29T14:42:49.664Z,8.71
2022-12-29T14:45:16.172Z,8.70
2022-12-29T14:47:45.613Z,8.68
2022-12-29T14:50:12.052Z,8.69
2022-12-29T14:53:02.476Z,8.71
2022-12-29T14:55:39.833Z,8.71
2022-12-29T14:58:15.372Z,8.65
2022-12-29T15:00:42.556Z,8.73
2022-12-29T15:03:17.799Z,8.67
2022-12-29T15:05:54.281Z,8.68
2022-12-29T15:08:25.024Z,8.59
2022-12-29T15:11:05.873Z,8.65
2022-12-29T15:13:43.312Z,8.58
2022-12-29T15:16:22.128Z,8.44
2022-12-29T15:18:48.648Z,8.40
2022-12-29T15:21:16.967Z,8.34
2022-12-29T15:23:45.912Z,8.31
2022-12-29T15:26:13.720Z,8.29
2022-12-29T15:28:42.993Z,8.38
2022-12-29T15:31:27.816Z,8.41
2022-12-29T15:34:09.762Z,8.42
2022-12-29T15:36:41.188Z,8.32
2022-12-29T15:39:21.616Z,8.25
2022-12-29T15:42:05.306Z,8.19
2022-12-29T15:44:44.366Z,8.11
2022-12-29T15:47:19.090Z,8.16
2022-12-29T15:49:50.041Z,8.18
2022-12-29T15:52:23.944Z,8.18
2022-12-29T15:54:54.332Z,8.16
2022-12-29T15:57:27.055Z,8.02
2022-12-29T15:59:57.443Z,8.06
2022-12-29T16:02:25.492Z,8.05
2022-12-29T16:05:16.582Z,8.08
2022-12-29T16:07:42.241Z,8.02
2022-12-29T16:10:47.956Z,8.08
2022-12-29T16:13:40.820Z,8.11
2022-12-29T16:16:17.480Z,8.23
2022-12-29T16:18:45.434Z,8.20
2022-12-29T16:21:23.484Z,8.18
2022-12-29T16:23:52.328Z,8.09
2022-12-29T16:26:20.810Z,8.11
2022-12-29T16:29:02.104Z,8.16
2022-12-29T16:32:01.573Z,8.14
2022-12-29T16:35:11.289Z,8.04
2022-12-29T16:37:38.673Z,7.99
2022-12-29T16:40:44.044Z,7.96
2022-12-29T16:43:47.813Z,7.88
2022-12-29T16:46:40.114Z,7.87
2022-12-29T16:49:23.746Z,7.86
2022-12-29T16:51:56.188Z,7.83
2022-12-29T16:54:51.748Z,7.89
2022-12-29T16:57:27.999Z,7.83
2022-12-29T17:00:06.385Z,7.92
2022-12-29T17:02:34.806Z,7.98
2022-12-29T17:05:01.753Z,7.98
2022-12-29T17:07:29.251Z,7.95
2022-12-29T17:09:55.865Z,7.99
2022-12-29T17:12:26.196Z,8.04
2022-12-29T17:14:58.746Z,7.97
2022-12-29T17:17:41.982Z,7.86
2022-12-29T17:20:19.242Z,8.01
2022-12-29T17:22:45.893Z,7.95
2022-12-29T17:25:51.031Z,7.99
2022-12-29T17:34:01.476Z,7.77
2022-12-29T17:36:32.474Z,7.66
2022-12-29T17:39:28.895Z,7.69
2022-12-29T17:41:59.977Z,7.71
2022-12-29T17:44:29.316Z,7.71
2022-12-29T17:46:55.982Z,7.71
2022-12-29T17:49:22.865Z,7.74
2022-12-29T17:51:49.573Z,7.67
2022-12-29T17:54:23.517Z,7.72
2022-12-29T17:56:50.416Z,7.85
2022-12-29T17:59:18.484Z,7.92
2022-12-29T18:01:47.329Z,7.97
2022-12-29T18:04:40.110Z,8.03
2022-12-29T18:07:11.499Z,8.04
2022-12-29T18:09:38.307Z,8.07
2022-12-29T18:12:06.129Z,8.10
2022-12-29T18:14:33.091Z,8.07
2022-12-29T18:19:45.032Z,8.20
2022-12-29T18:22:11.726Z,8.19
2022-12-29T18:24:39.853Z,8.23
2022-12-29T18:27:15.998Z,8.19
2022-12-29T18:29:42.499Z,8.14
2022-12-29T18:32:13.812Z,8.20
2022-12-29T18:34:41.768Z,8.26
2022-12-29T18:37:09.401Z,8.31
2022-12-29T18:42:19.919Z,8.08
2022-12-29T18:44:46.478Z,8.06
2022-12-29T18:47:13.064Z,8.07
2022-12-29T18:49:39.928Z,8.04
2022-12-29T18:52:06.568Z,8.03
2022-12-29T18:54:43.670Z,7.90
2022-12-29T18:57:10.482Z,7.86
2022-12-29T18:59:37.075Z,7.86
2022-12-29T19:02:04.129Z,7.81
2022-12-29T19:04:30.825Z,7.87
2022-12-29T19:06:57.579Z,7.87
2022-12-29T19:09:26.593Z,7.84
2022-12-29T19:11:53.266Z,7.87
2022-12-29T19:14:20.059Z,7.74
2022-12-29T19:16:47.352Z,7.69
2022-12-29T19:19:16.489Z,7.69
2022-12-29T19:21:44.276Z,7.71
2022-12-29T19:24:10.913Z,7.64
2022-12-29T19:26:40.904Z,7.57
2022-12-29T19:29:15.754Z,7.47
2022-12-29T19:31:42.847Z,7.44
2022-12-29T19:37:15.828Z,7.35
2022-12-29T19:39:42.875Z,7.35
2022-12-29T19:42:09.411Z,7.30
2022-12-29T19:44:36.307Z,7.27
2022-12-29T19:47:03.158Z,7.21
2022-12-29T19:49:30.306Z,7.24
2022-12-29T19:51:56.844Z,7.21
2022-12-29T19:54:23.705Z,7.19
2022-12-29T19:56:50.764Z,7.13
2022-12-29T19:59:17.454Z,7.09
2022-12-29T20:01:46.920Z,7.12
2022-12-29T20:04:13.715Z,7.03
2022-12-29T20:06:40.407Z,7.04
2022-12-29T20:09:07.330Z,7.02
2022-12-29T20:11:34.084Z,7.01
2022-12-29T20:14:01.117Z,6.92
2022-12-29T20:16:29.603Z,6.90
2022-12-29T20:18:56.228Z,6.72
2022-12-29T20:22:24.094Z,6.52
2022-12-29T20:24:53.927Z,6.44
2022-12-29T20:27:26.490Z,6.29
2022-12-29T20:29:53.182Z,6.25
2022-12-29T20:32:25.513Z,6.20
2022-12-29T20:34:54.384Z,6.11
2022-12-29T20:37:22.546Z,6.05
2022-12-29T20:39:49.245Z,5.92
2022-12-29T20:42:18.105Z,5.86
2022-12-29T20:44:45.272Z,5.64
2022-12-29T20:47:11.933Z,5.60
2022-12-29T20:49:38.717Z,5.61
2022-12-29T20:52:07.352Z,5.47
2022-12-29T20:54:39.201Z,5.48
2022-12-29T20:57:07.637Z,5.41
2022-12-29T20:59:34.186Z,5.32
2022-12-29T21:02:01.182Z,5.29
2022-12-29T21:04:38.405Z,5.22
2022-12-29T21:07:19.914Z,5.13
2022-12-29T21:09:50.261Z,4.95
2022-12-29T21:12:16.943Z,4.96
2022-12-29T21:14:45.858Z,4.87
2022-12-29T21:17:12.832Z,4.90
2022-12-29T21:19:39.504Z,4.98
2022-12-29T21:22:06.177Z,5.03
2022-12-29T21:24:32.748Z,5.01
2022-12-29T21:26:59.261Z,5.06
2022-12-29T21:29:26.663Z,5.01
2022-12-29T21:31:53.531Z,5.01
2022-12-29T21:34:48.096Z,5.02
2022-12-29T21:40:14.391Z,5.05
2022-12-29T21:42:40.896Z,5.03
2022-12-29T21:45:26.591Z,5.01
2022-12-29T21:48:13.277Z,4.98
2022-12-29T21:51:01.283Z,5.00
2022-12-29T21:53:39.735Z,4.99
2022-12-29T21:56:15.169Z,5.05
2022-12-29T21:59:03.744Z,5.09
2022-12-29T22:01:51.042Z,5.03
2022-12-29T22:04:38.962Z,5.04
2022-12-29T22:07:26.499Z,5.02
2022-12-29T22:10:11.836Z,5.03
2022-12-29T22:12:56.998Z,5.06
2022-12-29T22:15:23.936Z,5.11
2022-12-29T22:17:54.075Z,5.12
2022-12-29T22:20:23.555Z,5.16
2022-12-29T22:22:50.242Z,5.22
2022-12-29T22:25:16.948Z,5.19
2022-12-29T22:27:44.332Z,5.12
2022-12-29T22:30:11.416Z,5.15
2022-12-29T22:32:38.013Z,5.07
2022-12-29T22:35:08.014Z,5.02
2022-12-29T22:37:36.206Z,4.91
2022-12-29T22:40:04.557Z,4.90
2022-12-29T22:42:31.529Z,4.92
2022-12-29T22:44:58.074Z,4.92
2022-12-29T22:47:24.742Z,4.99
2022-12-29T22:49:51.233Z,4.98
2022-12-29T22:52:17.732Z,5.02
2022-12-29T22:54:44.240Z,4.99
2022-12-29T22:57:10.762Z,5.01
2022-12-29T22:59:37.271Z,5.06
2022-12-29T23:02:03.922Z,4.99
2022-12-29T23:07:17.143Z,5.01
2022-12-29T23:09:43.674Z,5.06
2022-12-29T23:12:10.201Z,5.08
2022-12-29T23:14:36.826Z,5.08
2022-12-29T23:17:03.358Z,5.08
2022-12-29T23:19:29.858Z,5.10
2022-12-29T23:21:56.479Z,5.10
2022-12-29T23:24:23.007Z,5.09
2022-12-29T23:26:50.601Z,5.07
2022-12-29T23:29:19.558Z,5.06
2022-12-29T23:31:48.249Z,5.02
2022-12-29T23:34:16.505Z,4.93
2022-12-29T23:36:43.220Z,4.99
2022-12-29T23:39:15.787Z,5.05
2022-12-29T23:41:42.320Z,5.03
2022-12-29T23:44:08.851Z,5.10
2022-12-29T23:46:36.848Z,5.06
2022-12-29T23:49:03.412Z,5.08
2022-12-29T23:51:29.928Z,5.01
2022-12-29T23:53:56.443Z,5.00
2022-12-29T23:56:23.623Z,4.98
2022-12-29T23:58:51.260Z,4.84
